sensor_id;sensor_type;location;lat;lon;timestamp;P1;durP1;ratioP1;P2;durP2;ratioP2
68923;SDS011;55961;52.156;20.942;2024-01-15T00:00:45;11.00;;;4.35;;
68923;SDS011;55961;52.156;20.942;2024-01-15T00:03:32;8.45;;;3.47;;
68923;SDS011;55961;52.156;20.942;2024-01-15T00:05:57;14.10;;;5.77;;
68923;SDS011;55961;52.156;20.942;2024-01-15T00:08:23;10.27;;;4.25;;
68923;SDS011;55961;52.156;20.942;2024-01-15T00:10:49;6.75;;;3.35;;
68923;SDS011;55961;52.156;20.942;2024-01-15T00:13:16;7.55;;;3.42;;
68923;SDS011;55961;52.156;20.942;2024-01-15T00:15:41;12.10;;;5.70;;
68923;SDS011;55961;52.156;20.942;2024-01-15T00:18:07;12.20;;;4.75;;
68923;SDS011;55961;52.156;20.942;2024-01-15T00:20:33;9.45;;;3.85;;
68923;SDS011;55961;52.156;20.942;2024-01-15T00:22:59;14.57;;;4.63;;
68923;SDS011;55961;52.156;20.942;2024-01-15T00:25:25;10.90;;;4.07;;
68923;SDS011;55961;52.156;20.942;2024-01-15T00:27:51;11.27;;;4.75;;
68923;SDS011;55961;52.156;20.942;2024-01-15T00:30:17;11.80;;;4.30;;
68923;SDS011;55961;52.156;20.942;2024-01-15T00:32:44;12.83;;;5.53;;
68923;SDS011;55961;52.156;20.942;2024-01-15T00:35:09;11.18;;;5.00;;
68923;SDS011;55961;52.156;20.942;2024-01-15T00:37:36;10.80;;;5.28;;
68923;SDS011;55961;52.156;20.942;2024-01-15T00:40:02;13.88;;;5.53;;
68923;SDS011;55961;52.156;20.942;2024-01-15T00:42:29;12.70;;;5.30;;
68923;SDS011;55961;52.156;20.942;2024-01-15T00:44:55;9.18;;;3.90;;
68923;SDS011;55961;52.156;20.942;2024-01-15T00:47:27;9.27;;;3.90;;
68923;SDS011;55961;52.156;20.942;2024-01-15T00:49:55;10.93;;;5.43;;
68923;SDS011;55961;52.156;20.942;2024-01-15T00:52:21;12.50;;;4.67;;
68923;SDS011;55961;52.156;20.942;2024-01-15T00:54:46;9.50;;;4.40;;
68923;SDS011;55961;52.156;20.942;2024-01-15T00:57:12;10.95;;;5.22;;
68923;SDS011;55961;52.156;20.942;2024-01-15T00:59:38;7.80;;;3.43;;
68923;SDS011;55961;52.156;20.942;2024-01-15T01:02:04;15.35;;;5.63;;
68923;SDS011;55961;52.156;20.942;2024-01-15T01:04:30;15.38;;;6.18;;
68923;SDS011;55961;52.156;20.942;2024-01-15T01:06:56;12.93;;;6.47;;
68923;SDS011;55961;52.156;20.942;2024-01-15T01:09:22;14.43;;;6.27;;
68923;SDS011;55961;52.156;20.942;2024-01-15T01:11:48;10.40;;;5.28;;
68923;SDS011;55961;52.156;20.942;2024-01-15T01:14:14;15.18;;;5.38;;
68923;SDS011;55961;52.156;20.942;2024-01-15T01:16:40;13.77;;;6.10;;
68923;SDS011;55961;52.156;20.942;2024-01-15T01:19:06;13.27;;;5.70;;
68923;SDS011;55961;52.156;20.942;2024-01-15T01:21:33;11.02;;;4.18;;
68923;SDS011;55961;52.156;20.942;2024-01-15T01:23:59;10.85;;;4.63;;
68923;SDS011;55961;52.156;20.942;2024-01-15T01:26:25;12.13;;;5.50;;
68923;SDS011;55961;52.156;20.942;2024-01-15T01:28:51;13.68;;;5.95;;
68923;SDS011;55961;52.156;20.942;2024-01-15T01:31:17;11.00;;;5.18;;
68923;SDS011;55961;52.156;20.942;2024-01-15T01:33:43;14.43;;;6.33;;
68923;SDS011;55961;52.156;20.942;2024-01-15T01:36:09;14.05;;;6.07;;
68923;SDS011;55961;52.156;20.942;2024-01-15T01:38:35;14.60;;;5.85;;
68923;SDS011;55961;52.156;20.942;2024-01-15T01:41:02;15.00;;;6.10;;
68923;SDS011;55961;52.156;20.942;2024-01-15T01:43:28;10.53;;;5.30;;
68923;SDS011;55961;52.156;20.942;2024-01-15T01:45:57;11.35;;;4.97;;
68923;SDS011;55961;52.156;20.942;2024-01-15T01:48:25;14.60;;;5.25;;
68923;SDS011;55961;52.156;20.942;2024-01-15T01:50:54;13.85;;;5.80;;
68923;SDS011;55961;52.156;20.942;2024-01-15T01:53:23;14.38;;;6.55;;
68923;SDS011;55961;52.156;20.942;2024-01-15T01:55:51;13.23;;;5.20;;
68923;SDS011;55961;52.156;20.942;2024-01-15T01:58:18;14.65;;;7.10;;
68923;SDS011;55961;52.156;20.942;2024-01-15T02:00:46;16.90;;;7.93;;
68923;SDS011;55961;52.156;20.942;2024-01-15T02:03:12;13.75;;;5.03;;
68923;SDS011;55961;52.156;20.942;2024-01-15T02:05:39;12.05;;;5.13;;
68923;SDS011;55961;52.156;20.942;2024-01-15T02:08:05;9.63;;;4.50;;
68923;SDS011;55961;52.156;20.942;2024-01-15T02:10:32;16.33;;;6.18;;
68923;SDS011;55961;52.156;20.942;2024-01-15T02:12:57;11.98;;;5.18;;
68923;SDS011;55961;52.156;20.942;2024-01-15T02:15:24;15.30;;;7.65;;
68923;SDS011;55961;52.156;20.942;2024-01-15T02:18:00;12.53;;;5.77;;
68923;SDS011;55961;52.156;20.942;2024-01-15T02:20:27;11.98;;;5.35;;
68923;SDS011;55961;52.156;20.942;2024-01-15T02:22:53;12.85;;;7.15;;
68923;SDS011;55961;52.156;20.942;2024-01-15T02:25:19;11.98;;;4.85;;
68923;SDS011;55961;52.156;20.942;2024-01-15T02:27:45;14.80;;;6.35;;
68923;SDS011;55961;52.156;20.942;2024-01-15T02:30:12;13.50;;;6.23;;
68923;SDS011;55961;52.156;20.942;2024-01-15T02:32:38;16.17;;;7.35;;
68923;SDS011;55961;52.156;20.942;2024-01-15T02:35:04;14.02;;;5.90;;
68923;SDS011;55961;52.156;20.942;2024-01-15T02:37:30;13.60;;;6.03;;
68923;SDS011;55961;52.156;20.942;2024-01-15T02:39:56;14.83;;;6.23;;
68923;SDS011;55961;52.156;20.942;2024-01-15T02:42:22;15.02;;;6.07;;
68923;SDS011;55961;52.156;20.942;2024-01-15T02:44:48;12.98;;;5.47;;
68923;SDS011;55961;52.156;20.942;2024-01-15T02:47:14;10.98;;;5.03;;
68923;SDS011;55961;52.156;20.942;2024-01-15T02:49:40;15.00;;;6.00;;
68923;SDS011;55961;52.156;20.942;2024-01-15T02:52:06;15.75;;;7.35;;
68923;SDS011;55961;52.156;20.942;2024-01-15T02:54:32;10.50;;;4.82;;
68923;SDS011;55961;52.156;20.942;2024-01-15T02:56:58;17.80;;;6.78;;
68923;SDS011;55961;52.156;20.942;2024-01-15T02:59:25;16.77;;;6.60;;
68923;SDS011;55961;52.156;20.942;2024-01-15T03:01:50;13.23;;;5.95;;
68923;SDS011;55961;52.156;20.942;2024-01-15T03:04:16;14.88;;;6.85;;
68923;SDS011;55961;52.156;20.942;2024-01-15T03:06:42;12.73;;;5.53;;
68923;SDS011;55961;52.156;20.942;2024-01-15T03:09:08;15.32;;;6.20;;
68923;SDS011;55961;52.156;20.942;2024-01-15T03:11:38;13.85;;;6.65;;
68923;SDS011;55961;52.156;20.942;2024-01-15T03:14:04;16.48;;;7.57;;
68923;SDS011;55961;52.156;20.942;2024-01-15T03:16:30;17.23;;;6.87;;
68923;SDS011;55961;52.156;20.942;2024-01-15T03:18:56;16.17;;;5.93;;
68923;SDS011;55961;52.156;20.942;2024-01-15T03:21:22;14.90;;;6.90;;
68923;SDS011;55961;52.156;20.942;2024-01-15T03:23:48;9.68;;;4.93;;
68923;SDS011;55961;52.156;20.942;2024-01-15T03:26:14;10.63;;;4.60;;
68923;SDS011;55961;52.156;20.942;2024-01-15T03:28:40;16.25;;;7.97;;
68923;SDS011;55961;52.156;20.942;2024-01-15T03:31:07;15.10;;;6.05;;
68923;SDS011;55961;52.156;20.942;2024-01-15T03:33:33;15.83;;;7.60;;
68923;SDS011;55961;52.156;20.942;2024-01-15T03:35:59;16.90;;;7.22;;
68923;SDS011;55961;52.156;20.942;2024-01-15T03:38:28;19.77;;;6.88;;
68923;SDS011;55961;52.156;20.942;2024-01-15T03:40:53;13.25;;;6.03;;
68923;SDS011;55961;52.156;20.942;2024-01-15T03:43:20;12.77;;;4.30;;
68923;SDS011;55961;52.156;20.942;2024-01-15T03:45:45;17.45;;;7.25;;
68923;SDS011;55961;52.156;20.942;2024-01-15T03:48:11;13.07;;;5.38;;
68923;SDS011;55961;52.156;20.942;2024-01-15T03:50:37;15.23;;;7.17;;
68923;SDS011;55961;52.156;20.942;2024-01-15T03:53:03;16.80;;;6.77;;
68923;SDS011;55961;52.156;20.942;2024-01-15T03:55:29;15.73;;;6.53;;
68923;SDS011;55961;52.156;20.942;2024-01-15T03:57:55;14.43;;;6.85;;
68923;SDS011;55961;52.156;20.942;2024-01-15T04:00:21;16.30;;;7.40;;
68923;SDS011;55961;52.156;20.942;2024-01-15T04:02:48;14.05;;;5.63;;
68923;SDS011;55961;52.156;20.942;2024-01-15T04:05:13;11.02;;;5.03;;
68923;SDS011;55961;52.156;20.942;2024-01-15T04:07:40;11.98;;;5.15;;
68923;SDS011;55961;52.156;20.942;2024-01-15T04:10:05;15.07;;;5.87;;
68923;SDS011;55961;52.156;20.942;2024-01-15T04:12:32;14.27;;;6.00;;
68923;SDS011;55961;52.156;20.942;2024-01-15T04:14:58;17.02;;;6.80;;
68923;SDS011;55961;52.156;20.942;2024-01-15T04:17:24;10.25;;;4.00;;
68923;SDS011;55961;52.156;20.942;2024-01-15T04:19:50;11.83;;;4.97;;
68923;SDS011;55961;52.156;20.942;2024-01-15T04:22:16;16.55;;;6.70;;
68923;SDS011;55961;52.156;20.942;2024-01-15T04:24:41;11.48;;;4.60;;
68923;SDS011;55961;52.156;20.942;2024-01-15T04:27:07;14.43;;;5.87;;
68923;SDS011;55961;52.156;20.942;2024-01-15T04:29:33;13.45;;;6.05;;
68923;SDS011;55961;52.156;20.942;2024-01-15T04:31:59;8.98;;;3.78;;
68923;SDS011;55961;52.156;20.942;2024-01-15T04:34:25;12.27;;;5.30;;
68923;SDS011;55961;52.156;20.942;2024-01-15T04:36:51;14.47;;;4.83;;
68923;SDS011;55961;52.156;20.942;2024-01-15T04:39:17;11.68;;;5.18;;
68923;SDS011;55961;52.156;20.942;2024-01-15T04:41:43;12.18;;;5.15;;
68923;SDS011;55961;52.156;20.942;2024-01-15T04:44:09;10.43;;;4.97;;
68923;SDS011;55961;52.156;20.942;2024-01-15T04:46:35;7.20;;;3.35;;
68923;SDS011;55961;52.156;20.942;2024-01-15T04:49:01;12.20;;;5.78;;
68923;SDS011;55961;52.156;20.942;2024-01-15T04:51:27;11.90;;;6.18;;
68923;SDS011;55961;52.156;20.942;2024-01-15T04:53:53;13.67;;;4.53;;
68923;SDS011;55961;52.156;20.942;2024-01-15T04:56:19;14.85;;;5.55;;
68923;SDS011;55961;52.156;20.942;2024-01-15T04:58:45;15.15;;;6.68;;
68923;SDS011;55961;52.156;20.942;2024-01-15T05:01:12;19.63;;;12.03;;
68923;SDS011;55961;52.156;20.942;2024-01-15T05:03:37;15.95;;;8.52;;
68923;SDS011;55961;52.156;20.942;2024-01-15T05:06:04;11.43;;;4.50;;
68923;SDS011;55961;52.156;20.942;2024-01-15T05:08:31;15.18;;;5.63;;
68923;SDS011;55961;52.156;20.942;2024-01-15T05:10:59;8.53;;;4.00;;
68923;SDS011;55961;52.156;20.942;2024-01-15T05:13:25;13.48;;;8.32;;
68923;SDS011;55961;52.156;20.942;2024-01-15T05:15:52;8.73;;;4.28;;
68923;SDS011;55961;52.156;20.942;2024-01-15T05:18:17;11.93;;;5.40;;
68923;SDS011;55961;52.156;20.942;2024-01-15T05:20:44;10.55;;;5.18;;
68923;SDS011;55961;52.156;20.942;2024-01-15T05:23:10;10.40;;;4.07;;
68923;SDS011;55961;52.156;20.942;2024-01-15T05:25:36;10.73;;;4.60;;
68923;SDS011;55961;52.156;20.942;2024-01-15T05:28:02;12.35;;;4.35;;
68923;SDS011;55961;52.156;20.942;2024-01-15T05:30:28;14.65;;;7.13;;
68923;SDS011;55961;52.156;20.942;2024-01-15T05:32:54;12.30;;;5.07;;
68923;SDS011;55961;52.156;20.942;2024-01-15T05:35:20;10.38;;;5.60;;
68923;SDS011;55961;52.156;20.942;2024-01-15T05:37:46;11.10;;;6.15;;
68923;SDS011;55961;52.156;20.942;2024-01-15T05:40:12;9.90;;;4.47;;
68923;SDS011;55961;52.156;20.942;2024-01-15T05:42:38;13.07;;;5.20;;
68923;SDS011;55961;52.156;20.942;2024-01-15T05:45:05;8.52;;;4.10;;
68923;SDS011;55961;52.156;20.942;2024-01-15T05:47:31;12.65;;;4.20;;
68923;SDS011;55961;52.156;20.942;2024-01-15T05:49:57;10.45;;;4.57;;
68923;SDS011;55961;52.156;20.942;2024-01-15T05:52:24;11.50;;;4.40;;
68923;SDS011;55961;52.156;20.942;2024-01-15T05:54:50;19.83;;;8.15;;
68923;SDS011;55961;52.156;20.942;2024-01-15T05:57:16;10.23;;;5.05;;
68923;SDS011;55961;52.156;20.942;2024-01-15T05:59:42;14.70;;;5.75;;
68923;SDS011;55961;52.156;20.942;2024-01-15T06:02:09;14.77;;;5.95;;
68923;SDS011;55961;52.156;20.942;2024-01-15T06:04:36;13.07;;;6.13;;
68923;SDS011;55961;52.156;20.942;2024-01-15T06:07:02;17.63;;;10.95;;
68923;SDS011;55961;52.156;20.942;2024-01-15T06:09:28;11.95;;;5.65;;
68923;SDS011;55961;52.156;20.942;2024-01-15T06:11:55;12.75;;;7.25;;
68923;SDS011;55961;52.156;20.942;2024-01-15T06:14:21;9.03;;;4.17;;
68923;SDS011;55961;52.156;20.942;2024-01-15T06:16:47;12.05;;;4.75;;
68923;SDS011;55961;52.156;20.942;2024-01-15T06:19:13;11.70;;;5.75;;
68923;SDS011;55961;52.156;20.942;2024-01-15T06:21:38;11.23;;;5.17;;
68923;SDS011;55961;52.156;20.942;2024-01-15T06:24:05;9.80;;;4.55;;
68923;SDS011;55961;52.156;20.942;2024-01-15T06:26:31;11.98;;;5.13;;
68923;SDS011;55961;52.156;20.942;2024-01-15T06:28:57;12.60;;;5.20;;
68923;SDS011;55961;52.156;20.942;2024-01-15T06:31:23;10.93;;;5.53;;
68923;SDS011;55961;52.156;20.942;2024-01-15T06:33:49;14.95;;;6.70;;
68923;SDS011;55961;52.156;20.942;2024-01-15T06:36:15;11.90;;;5.65;;
68923;SDS011;55961;52.156;20.942;2024-01-15T06:38:44;16.00;;;5.88;;
68923;SDS011;55961;52.156;20.942;2024-01-15T06:41:10;10.25;;;4.72;;
68923;SDS011;55961;52.156;20.942;2024-01-15T06:43:36;11.30;;;4.80;;
68923;SDS011;55961;52.156;20.942;2024-01-15T06:46:02;11.27;;;4.65;;
68923;SDS011;55961;52.156;20.942;2024-01-15T06:48:28;16.40;;;7.28;;
68923;SDS011;55961;52.156;20.942;2024-01-15T06:50:54;21.47;;;7.97;;
68923;SDS011;55961;52.156;20.942;2024-01-15T06:53:20;10.48;;;4.80;;
68923;SDS011;55961;52.156;20.942;2024-01-15T06:55:46;18.00;;;7.35;;
68923;SDS011;55961;52.156;20.942;2024-01-15T06:58:12;14.13;;;5.90;;
68923;SDS011;55961;52.156;20.942;2024-01-15T07:00:38;15.10;;;6.67;;
68923;SDS011;55961;52.156;20.942;2024-01-15T07:03:06;14.13;;;6.75;;
68923;SDS011;55961;52.156;20.942;2024-01-15T07:05:32;15.38;;;6.68;;
68923;SDS011;55961;52.156;20.942;2024-01-15T07:07:58;12.50;;;5.90;;
68923;SDS011;55961;52.156;20.942;2024-01-15T07:10:24;16.47;;;6.47;;
68923;SDS011;55961;52.156;20.942;2024-01-15T07:12:51;12.05;;;5.95;;
68923;SDS011;55961;52.156;20.942;2024-01-15T07:15:17;18.63;;;9.38;;
68923;SDS011;55961;52.156;20.942;2024-01-15T07:17:43;18.63;;;8.18;;
68923;SDS011;55961;52.156;20.942;2024-01-15T07:20:09;13.77;;;6.73;;
68923;SDS011;55961;52.156;20.942;2024-01-15T07:22:36;13.65;;;5.13;;
68923;SDS011;55961;52.156;20.942;2024-01-15T07:25:02;12.27;;;6.40;;
68923;SDS011;55961;52.156;20.942;2024-01-15T07:27:30;11.93;;;6.28;;
68923;SDS011;55961;52.156;20.942;2024-01-15T07:29:57;10.27;;;4.65;;
68923;SDS011;55961;52.156;20.942;2024-01-15T07:32:23;13.87;;;6.90;;
68923;SDS011;55961;52.156;20.942;2024-01-15T07:34:49;12.32;;;5.30;;
68923;SDS011;55961;52.156;20.942;2024-01-15T07:37:15;15.90;;;7.10;;
68923;SDS011;55961;52.156;20.942;2024-01-15T07:39:41;15.82;;;6.60;;
68923;SDS011;55961;52.156;20.942;2024-01-15T07:42:08;12.67;;;5.87;;
68923;SDS011;55961;52.156;20.942;2024-01-15T07:44:34;13.07;;;7.28;;
68923;SDS011;55961;52.156;20.942;2024-01-15T07:47:00;13.73;;;7.30;;
68923;SDS011;55961;52.156;20.942;2024-01-15T07:49:26;10.77;;;5.10;;
68923;SDS011;55961;52.156;20.942;2024-01-15T07:51:52;18.75;;;5.72;;
68923;SDS011;55961;52.156;20.942;2024-01-15T07:54:18;10.87;;;4.87;;
68923;SDS011;55961;52.156;20.942;2024-01-15T07:59:23;14.40;;;5.00;;
68923;SDS011;55961;52.156;20.942;2024-01-15T08:01:50;9.15;;;4.25;;
68923;SDS011;55961;52.156;20.942;2024-01-15T08:04:16;13.47;;;6.17;;
68923;SDS011;55961;52.156;20.942;2024-01-15T08:06:43;12.75;;;6.50;;
68923;SDS011;55961;52.156;20.942;2024-01-15T08:09:09;10.05;;;4.28;;
68923;SDS011;55961;52.156;20.942;2024-01-15T08:11:35;10.57;;;4.82;;
68923;SDS011;55961;52.156;20.942;2024-01-15T08:14:01;10.10;;;4.57;;
68923;SDS011;55961;52.156;20.942;2024-01-15T08:16:27;12.03;;;4.37;;
68923;SDS011;55961;52.156;20.942;2024-01-15T08:18:53;7.78;;;3.80;;
68923;SDS011;55961;52.156;20.942;2024-01-15T08:21:19;11.07;;;4.53;;
68923;SDS011;55961;52.156;20.942;2024-01-15T08:23:45;10.80;;;4.85;;
68923;SDS011;55961;52.156;20.942;2024-01-15T08:26:11;10.20;;;4.67;;
68923;SDS011;55961;52.156;20.942;2024-01-15T08:28:37;9.82;;;3.55;;
68923;SDS011;55961;52.156;20.942;2024-01-15T08:31:03;6.32;;;2.72;;
68923;SDS011;55961;52.156;20.942;2024-01-15T08:33:29;10.50;;;4.30;;
68923;SDS011;55961;52.156;20.942;2024-01-15T08:35:55;7.57;;;3.10;;
68923;SDS011;55961;52.156;20.942;2024-01-15T08:38:21;5.93;;;3.28;;
68923;SDS011;55961;52.156;20.942;2024-01-15T08:40:49;9.18;;;4.13;;
68923;SDS011;55961;52.156;20.942;2024-01-15T08:43:15;8.03;;;2.80;;
68923;SDS011;55961;52.156;20.942;2024-01-15T08:45:41;8.30;;;3.80;;
68923;SDS011;55961;52.156;20.942;2024-01-15T08:48:07;13.93;;;5.47;;
68923;SDS011;55961;52.156;20.942;2024-01-15T08:50:33;9.32;;;4.65;;
68923;SDS011;55961;52.156;20.942;2024-01-15T08:52:59;11.30;;;4.60;;
68923;SDS011;55961;52.156;20.942;2024-01-15T08:55:25;11.32;;;4.75;;
68923;SDS011;55961;52.156;20.942;2024-01-15T08:57:51;12.68;;;4.40;;
68923;SDS011;55961;52.156;20.942;2024-01-15T09:00:17;7.60;;;3.70;;
68923;SDS011;55961;52.156;20.942;2024-01-15T09:02:43;10.27;;;5.15;;
68923;SDS011;55961;52.156;20.942;2024-01-15T09:05:09;11.02;;;4.25;;
68923;SDS011;55961;52.156;20.942;2024-01-15T09:07:35;7.72;;;3.35;;
68923;SDS011;55961;52.156;20.942;2024-01-15T09:10:02;9.93;;;4.13;;
68923;SDS011;55961;52.156;20.942;2024-01-15T09:12:28;11.38;;;5.05;;
68923;SDS011;55961;52.156;20.942;2024-01-15T09:14:55;9.90;;;4.00;;
68923;SDS011;55961;52.156;20.942;2024-01-15T09:17:21;11.40;;;4.85;;
68923;SDS011;55961;52.156;20.942;2024-01-15T09:19:49;12.10;;;4.57;;
68923;SDS011;55961;52.156;20.942;2024-01-15T09:22:15;12.17;;;3.73;;
68923;SDS011;55961;52.156;20.942;2024-01-15T09:24:46;9.15;;;3.55;;
68923;SDS011;55961;52.156;20.942;2024-01-15T09:27:12;8.05;;;2.92;;
68923;SDS011;55961;52.156;20.942;2024-01-15T09:29:39;10.82;;;3.97;;
68923;SDS011;55961;52.156;20.942;2024-01-15T09:32:08;11.57;;;2.78;;
68923;SDS011;55961;52.156;20.942;2024-01-15T09:34:34;10.53;;;3.60;;
68923;SDS011;55961;52.156;20.942;2024-01-15T09:37:00;9.02;;;2.97;;
68923;SDS011;55961;52.156;20.942;2024-01-15T09:39:27;8.85;;;3.33;;
68923;SDS011;55961;52.156;20.942;2024-01-15T09:41:53;6.25;;;2.80;;
68923;SDS011;55961;52.156;20.942;2024-01-15T09:44:20;10.50;;;3.67;;
68923;SDS011;55961;52.156;20.942;2024-01-15T09:46:46;7.77;;;2.70;;
68923;SDS011;55961;52.156;20.942;2024-01-15T09:49:16;7.55;;;2.03;;
68923;SDS011;55961;52.156;20.942;2024-01-15T09:51:42;8.23;;;2.60;;
68923;SDS011;55961;52.156;20.942;2024-01-15T09:54:09;6.22;;;2.38;;
68923;SDS011;55961;52.156;20.942;2024-01-15T09:56:35;9.45;;;2.88;;
68923;SDS011;55961;52.156;20.942;2024-01-15T09:59:01;9.40;;;2.67;;
68923;SDS011;55961;52.156;20.942;2024-01-15T10:01:31;11.68;;;1.92;;
68923;SDS011;55961;52.156;20.942;2024-01-15T10:03:57;11.40;;;3.67;;
68923;SDS011;55961;52.156;20.942;2024-01-15T10:06:27;14.00;;;3.72;;
68923;SDS011;55961;52.156;20.942;2024-01-15T10:08:53;11.05;;;3.78;;
68923;SDS011;55961;52.156;20.942;2024-01-15T10:11:21;8.03;;;2.50;;
68923;SDS011;55961;52.156;20.942;2024-01-15T10:13:47;7.28;;;2.40;;
68923;SDS011;55961;52.156;20.942;2024-01-15T10:16:21;7.22;;;2.25;;
68923;SDS011;55961;52.156;20.942;2024-01-15T10:18:48;7.50;;;2.33;;
68923;SDS011;55961;52.156;20.942;2024-01-15T10:21:14;7.32;;;3.00;;
68923;SDS011;55961;52.156;20.942;2024-01-15T10:23:41;7.13;;;1.97;;
68923;SDS011;55961;52.156;20.942;2024-01-15T10:26:07;11.68;;;3.20;;
68923;SDS011;55961;52.156;20.942;2024-01-15T10:28:33;6.00;;;1.95;;
68923;SDS011;55961;52.156;20.942;2024-01-15T10:30:59;5.70;;;2.58;;
68923;SDS011;55961;52.156;20.942;2024-01-15T10:33:26;10.97;;;2.97;;
68923;SDS011;55961;52.156;20.942;2024-01-15T10:35:53;8.02;;;2.60;;
68923;SDS011;55961;52.156;20.942;2024-01-15T10:38:23;8.15;;;3.25;;
68923;SDS011;55961;52.156;20.942;2024-01-15T10:40:54;10.25;;;3.33;;
68923;SDS011;55961;52.156;20.942;2024-01-15T10:43:20;9.57;;;3.33;;
68923;SDS011;55961;52.156;20.942;2024-01-15T10:45:47;10.60;;;3.00;;
68923;SDS011;55961;52.156;20.942;2024-01-15T10:48:16;9.27;;;3.65;;
68923;SDS011;55961;52.156;20.942;2024-01-15T10:50:44;6.55;;;2.78;;
68923;SDS011;55961;52.156;20.942;2024-01-15T10:53:14;7.82;;;2.63;;
68923;SDS011;55961;52.156;20.942;2024-01-15T10:55:42;8.88;;;3.83;;
68923;SDS011;55961;52.156;20.942;2024-01-15T10:58:09;8.23;;;3.23;;
68923;SDS011;55961;52.156;20.942;2024-01-15T11:00:35;11.48;;;3.38;;
68923;SDS011;55961;52.156;20.942;2024-01-15T11:03:05;8.73;;;2.97;;
68923;SDS011;55961;52.156;20.942;2024-01-15T11:05:38;9.50;;;2.92;;
68923;SDS011;55961;52.156;20.942;2024-01-15T11:08:06;9.73;;;3.40;;
68923;SDS011;55961;52.156;20.942;2024-01-15T11:10:43;9.30;;;3.67;;
68923;SDS011;55961;52.156;20.942;2024-01-15T11:15:55;9.00;;;3.20;;
68923;SDS011;55961;52.156;20.942;2024-01-15T11:18:28;9.70;;;3.25;;
68923;SDS011;55961;52.156;20.942;2024-01-15T11:29:00;10.98;;;3.80;;
68923;SDS011;55961;52.156;20.942;2024-01-15T11:34:14;7.68;;;3.38;;
68923;SDS011;55961;52.156;20.942;2024-01-15T11:41:57;7.75;;;2.75;;
68923;SDS011;55961;52.156;20.942;2024-01-15T11:44:27;6.70;;;2.00;;
68923;SDS011;55961;52.156;20.942;2024-01-15T11:52:36;11.60;;;3.70;;
68923;SDS011;55961;52.156;20.942;2024-01-15T11:55:15;9.13;;;3.83;;
68923;SDS011;55961;52.156;20.942;2024-01-15T11:57:52;9.13;;;3.28;;
68923;SDS011;55961;52.156;20.942;2024-01-15T12:00:22;9.20;;;3.17;;
68923;SDS011;55961;52.156;20.942;2024-01-15T12:02:49;9.00;;;3.33;;
68923;SDS011;55961;52.156;20.942;2024-01-15T12:05:16;8.57;;;3.30;;
68923;SDS011;55961;52.156;20.942;2024-01-15T12:07:45;10.68;;;4.50;;
68923;SDS011;55961;52.156;20.942;2024-01-15T12:10:18;9.65;;;3.03;;
68923;SDS011;55961;52.156;20.942;2024-01-15T12:15:45;8.73;;;3.77;;
68923;SDS011;55961;52.156;20.942;2024-01-15T12:18:13;15.38;;;4.43;;
68923;SDS011;55961;52.156;20.942;2024-01-15T12:20:43;12.52;;;4.18;;
68923;SDS011;55961;52.156;20.942;2024-01-15T12:23:12;12.00;;;4.07;;
68923;SDS011;55961;52.156;20.942;2024-01-15T12:25:42;10.38;;;3.72;;
68923;SDS011;55961;52.156;20.942;2024-01-15T12:28:08;13.50;;;5.57;;
68923;SDS011;55961;52.156;20.942;2024-01-15T12:30:35;12.02;;;4.38;;
68923;SDS011;55961;52.156;20.942;2024-01-15T12:33:03;11.45;;;4.40;;
68923;SDS011;55961;52.156;20.942;2024-01-15T12:35:29;10.52;;;3.78;;
68923;SDS011;55961;52.156;20.942;2024-01-15T12:37:56;8.48;;;3.90;;
68923;SDS011;55961;52.156;20.942;2024-01-15T12:40:23;9.60;;;2.97;;
68923;SDS011;55961;52.156;20.942;2024-01-15T12:42:49;14.93;;;4.95;;
68923;SDS011;55961;52.156;20.942;2024-01-15T12:45:15;11.57;;;5.47;;
68923;SDS011;55961;52.156;20.942;2024-01-15T12:47:41;11.15;;;4.22;;
68923;SDS011;55961;52.156;20.942;2024-01-15T12:50:11;11.75;;;4.57;;
68923;SDS011;55961;52.156;20.942;2024-01-15T12:52:39;9.80;;;3.80;;
68923;SDS011;55961;52.156;20.942;2024-01-15T12:55:07;12.45;;;5.22;;
68923;SDS011;55961;52.156;20.942;2024-01-15T12:57:36;13.98;;;4.45;;
68923;SDS011;55961;52.156;20.942;2024-01-15T13:00:04;10.30;;;3.53;;
68923;SDS011;55961;52.156;20.942;2024-01-15T13:02:38;12.02;;;4.95;;
68923;SDS011;55961;52.156;20.942;2024-01-15T13:05:06;14.90;;;5.00;;
68923;SDS011;55961;52.156;20.942;2024-01-15T13:07:34;12.57;;;5.13;;
68923;SDS011;55961;52.156;20.942;2024-01-15T13:10:00;10.90;;;4.28;;
68923;SDS011;55961;52.156;20.942;2024-01-15T13:12:26;12.20;;;4.85;;
68923;SDS011;55961;52.156;20.942;2024-01-15T13:14:52;14.63;;;5.17;;
68923;SDS011;55961;52.156;20.942;2024-01-15T13:17:18;17.02;;;5.22;;
68923;SDS011;55961;52.156;20.942;2024-01-15T13:19:46;10.93;;;4.60;;
68923;SDS011;55961;52.156;20.942;2024-01-15T13:22:12;10.60;;;4.15;;
68923;SDS011;55961;52.156;20.942;2024-01-15T13:24:39;8.75;;;3.45;;
68923;SDS011;55961;52.156;20.942;2024-01-15T13:27:05;9.97;;;3.57;;
68923;SDS011;55961;52.156;20.942;2024-01-15T13:29:32;20.13;;;6.30;;
68923;SDS011;55961;52.156;20.942;2024-01-15T13:31:59;17.65;;;6.32;;
68923;SDS011;55961;52.156;20.942;2024-01-15T13:34:25;18.70;;;6.45;;
68923;SDS011;55961;52.156;20.942;2024-01-15T13:36:51;14.57;;;4.43;;
68923;SDS011;55961;52.156;20.942;2024-01-15T13:39:18;10.30;;;3.93;;
68923;SDS011;55961;52.156;20.942;2024-01-15T13:41:46;16.27;;;6.47;;
68923;SDS011;55961;52.156;20.942;2024-01-15T13:44:12;12.23;;;3.97;;
68923;SDS011;55961;52.156;20.942;2024-01-15T13:46:38;11.10;;;3.15;;
68923;SDS011;55961;52.156;20.942;2024-01-15T13:49:04;16.47;;;4.03;;
68923;SDS011;55961;52.156;20.942;2024-01-15T13:51:31;12.10;;;4.20;;
68923;SDS011;55961;52.156;20.942;2024-01-15T13:53:57;9.93;;;4.30;;
68923;SDS011;55961;52.156;20.942;2024-01-15T13:56:23;8.43;;;3.30;;
68923;SDS011;55961;52.156;20.942;2024-01-15T13:58:49;11.30;;;3.67;;
68923;SDS011;55961;52.156;20.942;2024-01-15T14:01:17;13.90;;;4.45;;
68923;SDS011;55961;52.156;20.942;2024-01-15T14:03:43;9.35;;;3.53;;
68923;SDS011;55961;52.156;20.942;2024-01-15T14:06:09;11.70;;;3.58;;
68923;SDS011;55961;52.156;20.942;2024-01-15T14:08:36;11.77;;;3.57;;
68923;SDS011;55961;52.156;20.942;2024-01-15T14:11:03;9.60;;;3.67;;
68923;SDS011;55961;52.156;20.942;2024-01-15T14:13:31;13.35;;;4.75;;
68923;SDS011;55961;52.156;20.942;2024-01-15T14:15:57;10.70;;;3.50;;
68923;SDS011;55961;52.156;20.942;2024-01-15T14:18:23;13.47;;;4.20;;
68923;SDS011;55961;52.156;20.942;2024-01-15T14:20:49;11.60;;;4.35;;
68923;SDS011;55961;52.156;20.942;2024-01-15T14:23:15;12.68;;;3.95;;
68923;SDS011;55961;52.156;20.942;2024-01-15T14:25:41;16.55;;;4.70;;
68923;SDS011;55961;52.156;20.942;2024-01-15T14:28:07;11.50;;;4.77;;
68923;SDS011;55961;52.156;20.942;2024-01-15T14:30:33;13.73;;;4.00;;
68923;SDS011;55961;52.156;20.942;2024-01-15T14:32:59;12.73;;;4.00;;
68923;SDS011;55961;52.156;20.942;2024-01-15T14:35:25;8.53;;;2.57;;
68923;SDS011;55961;52.156;20.942;2024-01-15T14:37:51;13.77;;;3.78;;
68923;SDS011;55961;52.156;20.942;2024-01-15T14:40:17;12.00;;;4.45;;
68923;SDS011;55961;52.156;20.942;2024-01-15T14:42:43;10.32;;;3.28;;
68923;SDS011;55961;52.156;20.942;2024-01-15T14:45:09;10.80;;;3.33;;
68923;SDS011;55961;52.156;20.942;2024-01-15T14:47:38;17.02;;;4.22;;
68923;SDS011;55961;52.156;20.942;2024-01-15T14:50:08;11.23;;;3.72;;